Time;durP1;ratioP1;P1;durP2;ratioP2;P2;SDS_P1;SDS_P2;PMS_P1;PMS_P2;Temp;Humidity;BMP_temperature;BMP_pressure;BME280_temperature;BME280_humidity;BME280_pressure;Samples;Min_cycle;Max_cycle;Signal;HPM_P1;HPM_P2
2021/09/17 00:00:29;;;;;;;8.93;6.97;;;17.60;1.00;;;;;;5107907;28;20242;-60
2021/09/17 00:02:55;;;;;;;7.40;6.63;;;17.70;1.00;;;;;;5112493;28;20651;-60
2021/09/17 00:05:21;;;;;;;9.87;7.07;;;17.60;1.00;;;;;;5109573;28;20423;-60
2021/09/17 00:07:46;;;;;;;8.10;6.60;;;17.70;1.00;;;;;;5112239;28;20432;-60
2021/09/17 00:10:12;;;;;;;8.43;6.63;;;17.70;1.00;;;;;;5110781;28;20201;-60
2021/09/17 00:12:38;;;;;;;7.20;6.50;;;17.70;1.00;;;;;;5110813;28;20221;-59
2021/09/17 00:15:04;;;;;;;7.70;6.97;;;17.70;1.00;;;;;;5100202;28;20531;-61
2021/09/17 00:17:30;;;;;;;10.77;8.30;;;17.60;1.00;;;;;;5112503;28;20556;-62
2021/09/17 00:19:56;;;;;;;8.13;7.33;;;17.50;1.00;;;;;;5110727;27;20447;-59
2021/09/17 00:22:21;;;;;;;9.57;7.60;;;17.60;1.00;;;;;;5094673;28;20210;-61
2021/09/17 00:24:47;;;;;;;7.53;6.80;;;17.60;1.00;;;;;;5112866;28;20175;-61
2021/09/17 00:27:12;;;;;;;8.33;7.53;;;17.60;1.00;;;;;;5107936;28;20191;-59
2021/09/17 00:29:38;;;;;;;7.97;7.17;;;17.60;1.00;;;;;;5107674;28;20198;-61
2021/09/17 00:32:04;;;;;;;8.57;7.77;;;17.60;1.00;;;;;;5111920;28;20249;-60
2021/09/17 00:34:29;;;;;;;8.80;7.90;;;17.60;1.00;;;;;;5099589;28;20297;-59
2021/09/17 00:36:55;;;;;;;8.70;7.80;;;17.60;1.00;;;;;;5112151;28;20436;-61
2021/09/17 00:39:20;;;;;;;11.77;8.97;;;17.60;1.00;;;;;;5108546;28;20188;-61
2021/09/17 00:41:46;;;;;;;8.80;7.67;;;17.60;1.00;;;;;;5111044;28;20179;-60
2021/09/17 00:44:20;;;;;;;9.27;7.77;;;17.60;1.00;;;;;;5111211;28;20176;-61
2021/09/17 00:46:46;;;;;;;10.40;7.47;;;17.60;1.00;;;;;;5111998;28;20182;-59
2021/09/17 00:49:12;;;;;;;7.93;7.23;;;17.60;1.00;;;;;;5102852;28;20495;-59
2021/09/17 00:51:38;;;;;;;8.73;7.83;;;17.60;1.00;;;;;;5105502;28;20585;-59
2021/09/17 00:54:04;;;;;;;8.50;7.60;;;17.60;1.00;;;;;;5110464;28;20448;-61
2021/09/17 00:56:29;;;;;;;8.53;7.33;;;17.60;1.00;;;;;;5106496;28;20360;-61
2021/09/17 00:58:55;;;;;;;8.97;6.13;;;17.50;1.00;;;;;;5112672;27;20320;-60
2021/09/17 01:01:20;;;;;;;8.27;6.43;;;17.50;1.00;;;;;;5110911;28;20592;-61
2021/09/17 01:03:46;;;;;;;9.73;7.50;;;17.50;1.00;;;;;;5110970;28;20179;-61
2021/09/17 01:06:12;;;;;;;7.97;6.73;;;17.50;1.00;;;;;;5119038;27;20188;-62
2021/09/17 01:08:38;;;;;;;6.60;5.93;;;17.50;1.00;;;;;;5109305;28;20212;-60
2021/09/17 01:11:05;;;;;;;7.00;6.40;;;17.50;1.00;;;;;;5110718;28;20185;-60
2021/09/17 01:13:31;;;;;;;6.70;6.00;;;17.50;1.00;;;;;;5111391;28;20408;-60
2021/09/17 01:15:57;;;;;;;8.50;5.67;;;17.50;1.00;;;;;;5108364;28;20456;-61
2021/09/17 01:18:23;;;;;;;5.37;4.37;;;17.50;1.00;;;;;;5114605;28;20529;-60
2021/09/17 01:20:48;;;;;;;5.53;5.03;;;17.50;1.00;;;;;;5111306;28;20215;-61
2021/09/17 01:23:14;;;;;;;4.77;4.23;;;17.60;1.00;;;;;;5114337;28;20181;-60
2021/09/17 01:25:40;;;;;;;4.90;4.50;;;17.60;1.00;;;;;;5114737;28;20188;-59
2021/09/17 01:28:05;;;;;;;5.13;4.07;;;17.60;1.00;;;;;;5111047;28;20197;-60
2021/09/17 01:30:31;;;;;;;5.30;3.97;;;17.70;1.00;;;;;;5109483;28;20189;-59
2021/09/17 01:32:56;;;;;;;4.13;3.83;;;17.70;1.00;;;;;;5112433;28;20182;-60
2021/09/17 01:35:23;;;;;;;3.83;3.40;;;17.70;1.00;;;;;;5113015;28;20664;-61
2021/09/17 01:37:49;;;;;;;4.80;4.10;;;17.70;1.00;;;;;;5112478;28;20183;-61
2021/09/17 01:40:16;;;;;;;3.63;3.33;;;17.60;1.00;;;;;;5106655;28;20460;-61
2021/09/17 01:42:43;;;;;;;6.47;4.40;;;17.60;1.00;;;;;;5115085;28;20763;-60
2021/09/17 01:45:09;;;;;;;4.80;3.27;;;17.70;1.00;;;;;;5112859;28;20497;-61
2021/09/17 01:47:35;;;;;;;5.77;3.67;;;17.80;1.00;;;;;;5112097;28;20447;-59
2021/09/17 01:50:01;;;;;;;4.70;4.23;;;17.80;1.00;;;;;;5111857;28;20470;-60
2021/09/17 01:52:27;;;;;;;7.10;3.73;;;17.80;1.00;;;;;;5112642;27;20949;-59
2021/09/17 01:54:52;;;;;;;9.73;3.73;;;17.70;1.00;;;;;;5113493;28;20204;-60
2021/09/17 01:57:18;;;;;;;3.80;3.50;;;17.60;1.00;;;;;;5111486;28;20255;-60
2021/09/17 01:59:43;;;;;;;3.87;3.13;;;17.60;1.00;;;;;;5112575;28;20646;-59
2021/09/17 02:02:09;;;;;;;3.97;3.67;;;17.60;1.00;;;;;;5113706;28;20190;-60
2021/09/17 02:04:34;;;;;;;6.07;3.30;;;17.60;1.00;;;;;;5108182;28;20198;-59
2021/09/17 02:07:00;;;;;;;3.13;2.90;;;17.70;1.00;;;;;;5108161;28;20248;-61
2021/09/17 02:09:25;;;;;;;4.80;3.63;;;17.70;1.00;;;;;;5111664;28;20675;-59
2021/09/17 02:11:51;;;;;;;4.60;3.63;;;17.70;1.00;;;;;;5108664;28;20195;-60
2021/09/17 02:14:16;;;;;;;5.33;3.63;;;17.60;1.00;;;;;;5111880;28;20269;-61
2021/09/17 02:16:42;;;;;;;4.50;4.10;;;17.60;1.00;;;;;;5112773;28;20209;-61
2021/09/17 02:19:07;;;;;;;4.23;3.57;;;17.60;1.00;;;;;;5112107;28;20540;-61
2021/09/17 02:21:34;;;;;;;4.33;3.93;;;17.50;1.00;;;;;;5111805;28;20609;-61
2021/09/17 02:24:00;;;;;;;4.53;3.73;;;17.50;1.00;;;;;;5114453;28;20242;-60
2021/09/17 02:26:26;;;;;;;4.47;3.40;;;17.50;1.00;;;;;;5110232;28;20425;-59
2021/09/17 02:28:51;;;;;;;5.07;4.03;;;17.60;1.00;;;;;;5114473;28;20553;-60
2021/09/17 02:31:17;;;;;;;4.70;3.97;;;17.60;1.00;;;;;;5113105;28;20567;-59
2021/09/17 02:33:43;;;;;;;5.37;4.87;;;17.60;1.00;;;;;;5112147;28;20194;-59
2021/09/17 02:36:09;;;;;;;3.83;3.53;;;17.60;1.00;;;;;;5110926;28;20428;-60
2021/09/17 02:38:35;;;;;;;4.23;3.70;;;17.60;1.00;;;;;;5109801;28;20232;-61
2021/09/17 02:41:01;;;;;;;6.10;3.60;;;17.60;1.00;;;;;;5111427;28;20181;-59
2021/09/17 02:43:26;;;;;;;3.97;3.57;;;17.60;1.00;;;;;;5111425;28;20448;-59
2021/09/17 02:45:52;;;;;;;4.70;4.20;;;17.60;1.00;;;;;;5113827;28;20201;-60
2021/09/17 02:48:17;;;;;;;4.57;4.17;;;17.60;1.00;;;;;;5113486;28;20228;-60
2021/09/17 02:50:43;;;;;;;4.30;3.90;;;17.60;1.00;;;;;;5112137;28;20542;-59
2021/09/17 02:53:09;;;;;;;5.13;4.17;;;17.60;1.00;;;;;;5107723;28;20196;-60
2021/09/17 02:55:34;;;;;;;5.17;4.03;;;17.70;1.00;;;;;;5108838;28;20182;-60
2021/09/17 02:58:03;;;;;;;3.77;3.40;;;17.50;1.00;;;;;;5104271;28;20609;-59
2021/09/17 03:00:30;;;;;;;5.13;3.90;;;17.50;1.00;;;;;;5109416;27;20174;-59
2021/09/17 03:02:56;;;;;;;4.20;3.47;;;17.50;1.00;;;;;;5110965;28;20413;-60
2021/09/17 03:05:21;;;;;;;3.80;3.50;;;17.50;1.00;;;;;;5113634;28;20957;-60
2021/09/17 03:07:48;;;;;;;5.03;3.83;;;17.50;1.00;;;;;;5108983;28;20688;-60
2021/09/17 03:10:14;;;;;;;4.23;3.73;;;17.50;1.00;;;;;;5109916;28;20190;-61
2021/09/17 03:12:40;;;;;;;7.17;4.30;;;17.60;1.00;;;;;;5113372;28;20955;-60
2021/09/17 03:15:06;;;;;;;5.20;3.93;;;17.60;1.00;;;;;;5112887;28;20415;-60
2021/09/17 03:17:31;;;;;;;3.47;3.17;;;17.60;1.00;;;;;;5112929;28;20211;-59
2021/09/17 03:19:57;;;;;;;4.43;3.73;;;17.50;1.00;;;;;;5108862;28;20959;-59
2021/09/17 03:22:25;;;;;;;3.93;3.63;;;17.50;1.00;;;;;;5108688;28;20647;-59
2021/09/17 03:24:51;;;;;;;4.00;3.60;;;17.50;1.00;;;;;;5110071;28;20196;-60
2021/09/17 03:27:16;;;;;;;6.07;3.37;;;17.50;1.00;;;;;;5112256;28;20439;-59
2021/09/17 03:29:42;;;;;;;4.47;3.40;;;17.50;1.00;;;;;;5109894;28;20196;-59
2021/09/17 03:32:08;;;;;;;3.60;3.30;;;17.50;1.00;;;;;;5109216;28;20410;-61
2021/09/17 03:34:33;;;;;;;5.53;3.40;;;17.40;1.00;;;;;;5106645;28;20310;-58
2021/09/17 03:36:59;;;;;;;3.50;2.70;;;17.50;1.00;;;;;;5108850;28;20600;-60
2021/09/17 03:39:24;;;;;;;12.83;4.80;;;17.50;1.00;;;;;;5110746;28;20191;-60
2021/09/17 03:41:50;;;;;;;5.40;4.07;;;17.60;1.00;;;;;;5100513;28;20252;-60
2021/09/17 03:44:16;;;;;;;6.00;3.70;;;17.60;1.00;;;;;;5111585;28;20189;-58
2021/09/17 03:46:42;;;;;;;3.50;3.20;;;17.60;1.00;;;;;;5111304;28;20182;-60
2021/09/17 03:49:08;;;;;;;6.90;3.83;;;17.60;1.00;;;;;;5112281;28;20438;-60
2021/09/17 03:51:34;;;;;;;4.00;3.50;;;17.60;1.00;;;;;;5107523;28;20457;-61
2021/09/17 03:53:59;;;;;;;4.77;3.83;;;17.60;1.00;;;;;;5100790;28;20957;-61
2021/09/17 03:56:25;;;;;;;5.13;3.90;;;17.70;1.00;;;;;;5102451;28;20621;-61
2021/09/17 03:58:51;;;;;;;7.90;3.63;;;17.60;1.00;;;;;;5110732;28;20594;-61
2021/09/17 04:01:17;;;;;;;5.63;4.13;;;17.50;1.00;;;;;;5109463;27;20455;-60
2021/09/17 04:03:42;;;;;;;4.47;4.10;;;17.60;1.00;;;;;;5110030;28;20187;-60
2021/09/17 04:06:08;;;;;;;6.37;4.70;;;17.60;1.00;;;;;;5108597;28;20195;-60
2021/09/17 04:08:33;;;;;;;6.77;5.03;;;17.60;1.00;;;;;;5111209;28;20193;-59
2021/09/17 04:10:59;;;;;;;6.07;5.50;;;17.60;1.00;;;;;;5112398;28;20195;-60
2021/09/17 04:13:24;;;;;;;7.13;5.50;;;17.60;1.00;;;;;;5112625;28;20199;-60
2021/09/17 04:15:50;;;;;;;7.37;5.20;;;17.50;1.00;;;;;;5105727;28;20326;-60
2021/09/17 04:18:15;;;;;;;7.63;5.50;;;17.40;1.00;;;;;;5111418;28;20181;-60
2021/09/17 04:20:41;;;;;;;6.03;5.43;;;17.30;1.00;;;;;;5109427;28;20239;-59
2021/09/17 04:23:07;;;;;;;6.80;5.70;;;17.30;1.00;;;;;;5111557;28;20183;-60
2021/09/17 04:25:32;;;;;;;5.03;4.53;;;17.30;1.00;;;;;;5110921;28;20183;-59
2021/09/17 04:27:58;;;;;;;8.03;5.73;;;17.30;1.00;;;;;;5111139;28;20203;-59
2021/09/17 04:30:24;;;;;;;6.90;5.63;;;17.30;1.00;;;;;;5111665;28;20598;-60
2021/09/17 04:32:49;;;;;;;6.87;5.40;;;17.30;1.00;;;;;;5111115;28;20258;-59
2021/09/17 04:35:16;;;;;;;7.17;5.87;;;17.30;1.00;;;;;;5110198;28;20182;-59
2021/09/17 04:37:43;;;;;;;7.77;6.10;;;17.30;1.00;;;;;;5105566;28;20297;-61
2021/09/17 04:40:11;;;;;;;6.83;5.90;;;17.30;1.00;;;;;;5107079;28;20415;-60
2021/09/17 04:42:37;;;;;;;5.70;4.87;;;17.30;1.00;;;;;;5112055;28;20414;-58
2021/09/17 04:45:04;;;;;;;5.63;5.10;;;17.30;1.00;;;;;;5100717;28;20791;-61
2021/09/17 04:47:30;;;;;;;5.87;5.27;;;17.30;1.00;;;;;;5110960;28;20411;-60
2021/09/17 04:49:56;;;;;;;7.00;5.90;;;17.30;1.00;;;;;;5110470;28;20495;-60
2021/09/17 04:52:21;;;;;;;8.10;6.30;;;17.50;1.00;;;;;;5086856;28;20445;-59
2021/09/17 04:54:48;;;;;;;8.00;5.53;;;17.40;1.00;;;;;;5110822;28;20192;-60
2021/09/17 04:57:14;;;;;;;5.63;5.13;;;17.30;1.00;;;;;;5108482;28;20683;-63
2021/09/17 04:59:40;;;;;;;7.23;5.50;;;17.30;1.00;;;;;;5104441;28;20535;-62
2021/09/17 05:02:05;;;;;;;7.00;6.30;;;17.40;1.00;;;;;;5109474;27;20268;-63
2021/09/17 05:04:31;;;;;;;9.03;6.80;;;17.50;1.00;;;;;;5108004;28;20185;-64
2021/09/17 05:06:58;;;;;;;7.63;6.50;;;17.30;1.00;;;;;;5107762;28;20718;-63
2021/09/17 05:09:24;;;;;;;12.07;7.07;;;17.40;1.00;;;;;;5107311;28;20422;-63
2021/09/17 05:11:49;;;;;;;8.20;7.40;;;17.40;1.00;;;;;;5110669;28;21009;-62
2021/09/17 05:14:15;;;;;;;9.07;6.57;;;17.40;1.00;;;;;;5107726;28;20444;-63
2021/09/17 05:16:44;;;;;;;10.00;6.27;;;17.40;1.00;;;;;;5106605;28;20207;-64
2021/09/17 05:19:10;;;;;;;8.53;7.00;;;17.50;1.00;;;;;;5110167;28;20646;-63
2021/09/17 05:21:36;;;;;;;10.93;7.43;;;17.50;1.00;;;;;;5107868;28;20462;-64
2021/09/17 05:24:01;;;;;;;8.70;6.83;;;17.50;1.00;;;;;;5106337;28;20772;-64
2021/09/17 05:26:27;;;;;;;9.50;7.60;;;17.60;1.00;;;;;;5104114;28;20577;-63
2021/09/17 05:28:52;;;;;;;6.90;6.20;;;17.40;1.00;;;;;;5110606;28;20190;-63
2021/09/17 05:31:18;;;;;;;8.40;6.40;;;17.40;1.00;;;;;;5106385;28;20228;-63
2021/09/17 05:33:43;;;;;;;8.73;7.07;;;17.40;1.00;;;;;;5107240;28;20185;-62
2021/09/17 05:36:09;;;;;;;7.20;6.40;;;17.40;1.00;;;;;;5094671;28;20193;-61
2021/09/17 05:38:34;;;;;;;7.40;6.40;;;17.40;1.00;;;;;;5105540;28;21719;-62
2021/09/17 05:41:00;;;;;;;9.33;6.20;;;17.40;1.00;;;;;;5104103;28;20181;-60
2021/09/17 05:43:25;;;;;;;9.67;6.80;;;17.40;1.00;;;;;;5109442;28;20278;-60
2021/09/17 05:45:51;;;;;;;6.27;5.70;;;17.40;1.00;;;;;;5109551;28;20208;-60
2021/09/17 05:48:16;;;;;;;6.77;6.07;;;17.50;1.00;;;;;;5107660;28;20228;-61
2021/09/17 05:50:42;;;;;;;7.30;6.00;;;17.60;1.00;;;;;;5108854;28;20520;-62
2021/09/17 05:53:08;;;;;;;7.03;5.90;;;17.60;1.00;;;;;;5110201;28;20198;-60
2021/09/17 05:55:33;;;;;;;7.37;5.80;;;17.60;1.00;;;;;;5108341;28;20298;-60
2021/09/17 05:57:59;;;;;;;7.67;5.93;;;17.60;1.00;;;;;;5106439;28;20317;-60
2021/09/17 06:00:24;;;;;;;6.40;5.90;;;17.50;1.00;;;;;;5109407;28;20172;-60
2021/09/17 06:02:50;;;;;;;7.13;5.50;;;17.40;1.00;;;;;;5109847;28;20176;-61
2021/09/17 06:05:15;;;;;;;8.93;6.07;;;17.40;1.00;;;;;;5103025;28;20514;-61
2021/09/17 06:07:42;;;;;;;7.70;5.83;;;17.40;1.00;;;;;;5102116;28;20646;-61
2021/09/17 06:10:08;;;;;;;5.70;4.83;;;17.40;1.00;;;;;;5112818;28;20180;-60
2021/09/17 06:12:34;;;;;;;6.97;4.73;;;17.50;1.00;;;;;;5112741;28;20456;-61
2021/09/17 06:14:59;;;;;;;10.53;5.20;;;17.40;1.00;;;;;;5110668;28;20415;-62
2021/09/17 06:17:25;;;;;;;6.40;5.30;;;17.40;1.00;;;;;;5106130;28;20217;-62
2021/09/17 06:19:50;;;;;;;7.63;4.93;;;17.40;1.00;;;;;;5109345;28;20170;-61
2021/09/17 06:22:16;;;;;;;7.93;5.67;;;17.40;1.00;;;;;;5109331;28;20284;-61
2021/09/17 06:24:41;;;;;;;6.00;5.03;;;17.50;1.00;;;;;;5109466;28;20183;-62
2021/09/17 06:27:07;;;;;;;6.60;4.50;;;17.50;1.00;;;;;;5097798;28;20273;-61
2021/09/17 06:29:33;;;;;;;7.60;4.80;;;17.60;1.00;;;;;;5113429;28;20270;-60
2021/09/17 06:31:58;;;;;;;6.50;4.77;;;17.50;1.00;;;;;;5107875;28;20176;-62
2021/09/17 06:34:24;;;;;;;6.47;4.73;;;17.50;1.00;;;;;;5107557;28;20194;-60
2021/09/17 06:36:49;;;;;;;4.50;4.10;;;17.30;1.00;;;;;;5112123;28;20202;-61
2021/09/17 06:39:17;;;;;;;5.90;4.30;;;17.40;1.00;;;;;;5096792;28;20342;-60
2021/09/17 06:41:43;;;;;;;8.23;4.10;;;17.60;1.00;;;;;;5112623;28;20623;-61
2021/09/17 06:44:09;;;;;;;5.90;3.97;;;17.70;1.00;;;;;;5111815;28;20579;-61
2021/09/17 06:46:34;;;;;;;3.53;3.20;;;17.80;1.00;;;;;;5107224;28;20197;-60
2021/09/17 06:49:00;;;;;;;4.50;4.10;;;17.80;1.00;;;;;;5108634;28;20240;-60
2021/09/17 06:51:25;;;;;;;5.40;3.37;;;17.80;1.00;;;;;;5110896;28;20185;-60
2021/09/17 06:53:51;;;;;;;4.37;3.47;;;17.80;1.00;;;;;;5100787;28;20259;-61
2021/09/17 06:56:17;;;;;;;5.27;3.30;;;17.80;1.00;;;;;;5110666;28;20208;-59
2021/09/17 06:58:42;;;;;;;4.93;3.70;;;17.80;1.00;;;;;;5112458;28;20213;-61
2021/09/17 07:01:08;;;;;;;4.43;3.40;;;17.80;1.00;;;;;;5110986;28;20195;-60
2021/09/17 07:03:33;;;;;;;4.60;3.57;;;17.70;1.00;;;;;;5112486;28;20215;-61
2021/09/17 07:05:59;;;;;;;6.23;3.80;;;17.60;1.00;;;;;;5112898;28;20263;-61
2021/09/17 07:08:25;;;;;;;6.47;3.70;;;17.50;1.00;;;;;;5112103;28;20562;-60
2021/09/17 07:10:50;;;;;;;5.27;3.33;;;17.50;1.00;;;;;;5111477;28;20209;-59
2021/09/17 07:13:17;;;;;;;7.27;3.70;;;17.50;1.00;;;;;;5099032;28;20589;-60
2021/09/17 07:15:43;;;;;;;5.57;4.27;;;17.70;1.00;;;;;;5111046;27;20187;-61
2021/09/17 07:18:09;;;;;;;5.53;3.50;;;17.70;1.00;;;;;;5111842;28;20436;-60
2021/09/17 07:20:37;;;;;;;4.63;4.10;;;17.80;1.00;;;;;;5107196;28;20441;-60
2021/09/17 07:23:03;;;;;;;4.03;3.73;;;17.70;1.00;;;;;;5111631;28;20482;-59
2021/09/17 07:25:30;;;;;;;3.70;3.40;;;17.80;1.00;;;;;;5108957;28;20533;-59
2021/09/17 07:27:56;;;;;;;4.17;3.77;;;17.80;1.00;;;;;;5112559;28;20417;-60
2021/09/17 07:30:22;;;;;;;3.97;3.53;;;17.70;1.00;;;;;;5109296;28;20446;-59
2021/09/17 07:32:48;;;;;;;4.73;4.07;;;17.80;1.00;;;;;;5112739;28;20189;-60
2021/09/17 07:35:15;;;;;;;4.27;3.50;;;18.00;1.00;;;;;;5112495;28;20435;-59
2021/09/17 07:37:41;;;;;;;6.40;3.73;;;18.00;1.00;;;;;;5112580;28;20500;-61
2021/09/17 07:40:10;;;;;;;6.27;4.03;;;17.90;1.00;;;;;;5112185;28;20924;-58
2021/09/17 07:42:36;;;;;;;4.33;3.93;;;17.80;1.00;;;;;;5111747;28;20539;-61
2021/09/17 07:45:02;;;;;;;7.30;4.30;;;20.50;1.00;;;;;;5111702;28;20441;-60
2021/09/17 07:47:27;;;;;;;5.70;3.60;;;17.50;1.00;;;;;;5111933;28;20186;-63
2021/09/17 07:49:53;;;;;;;4.47;3.03;;;17.50;1.00;;;;;;5110430;28;20221;-59
2021/09/17 07:52:19;;;;;;;5.20;3.93;;;17.60;1.00;;;;;;5109314;28;20203;-60
2021/09/17 07:54:44;;;;;;;3.77;3.47;;;17.60;1.00;;;;;;5110844;28;20186;-59
2021/09/17 07:57:10;;;;;;;3.97;3.30;;;17.70;1.00;;;;;;5107577;28;20510;-60
2021/09/17 07:59:35;;;;;;;3.50;3.20;;;17.60;1.00;;;;;;5110750;28;20683;-60
2021/09/17 08:02:01;;;;;;;3.70;3.40;;;17.70;1.00;;;;;;5110532;28;20199;-60
2021/09/17 08:04:26;;;;;;;4.17;3.77;;;17.80;1.00;;;;;;5111497;27;20265;-59
2021/09/17 08:06:52;;;;;;;3.33;3.03;;;17.90;1.00;;;;;;5104657;28;20204;-59
2021/09/17 08:09:17;;;;;;;2.90;2.70;;;17.70;1.00;;;;;;5097776;28;20677;-61
2021/09/17 08:11:43;;;;;;;3.10;2.80;;;17.60;1.00;;;;;;5103393;28;20270;-61
2021/09/17 08:14:09;;;;;;;4.50;2.30;;;17.70;1.00;;;;;;5109523;28;20215;-59
2021/09/17 08:16:34;;;;;;;4.23;3.37;;;18.00;1.00;;;;;;5108899;28;20209;-59
2021/09/17 08:19:00;;;;;;;3.50;3.20;;;18.30;1.00;;;;;;5109535;28;20257;-59
2021/09/17 08:21:26;;;;;;;4.53;3.50;;;18.50;1.00;;;;;;5109022;28;20405;-59
2021/09/17 08:23:51;;;;;;;4.07;3.60;;;18.30;1.00;;;;;;5109051;28;20447;-59
2021/09/17 08:26:18;;;;;;;5.50;3.70;;;18.40;1.00;;;;;;5109104;28;20196;-59
2021/09/17 08:28:44;;;;;;;6.10;4.30;;;18.40;1.00;;;;;;5111345;28;20265;-59
2021/09/17 08:31:09;;;;;;;5.67;5.07;;;18.40;1.00;;;;;;5106393;28;20650;-59
2021/09/17 08:33:35;;;;;;;4.07;3.77;;;18.50;1.00;;;;;;5111823;28;20555;-59
2021/09/17 08:36:01;;;;;;;4.87;4.47;;;18.60;1.00;;;;;;5111786;28;20196;-61
2021/09/17 08:38:26;;;;;;;5.23;4.80;;;18.60;1.00;;;;;;5111850;28;20262;-59
2021/09/17 08:40:54;;;;;;;5.60;5.20;;;18.40;1.00;;;;;;5111481;28;20643;-61
2021/09/17 08:43:21;;;;;;;4.97;4.63;;;18.30;1.00;;;;;;5111426;28;20194;-60
2021/09/17 08:45:46;;;;;;;4.27;3.87;;;18.40;1.00;;;;;;5111224;28;20438;-59
2021/09/17 08:48:13;;;;;;;3.50;3.30;;;18.60;1.00;;;;;;5109971;28;20475;-60
2021/09/17 08:50:39;;;;;;;3.63;3.43;;;18.90;1.00;;;;;;5104432;28;20195;-60
2021/09/17 08:53:05;;;;;;;5.13;2.77;;;19.20;1.00;;;;;;5108436;28;20545;-60
2021/09/17 08:55:31;;;;;;;3.20;2.90;;;19.40;1.00;;;;;;5103446;28;20193;-60
2021/09/17 08:57:57;;;;;;;2.67;2.10;;;19.20;1.00;;;;;;5110197;28;20473;-59
2021/09/17 09:00:26;;;;;;;3.03;2.70;;;18.90;1.00;;;;;;5106455;28;20189;-59
2021/09/17 09:02:54;;;;;;;3.33;2.37;;;18.60;1.00;;;;;;5106353;28;20422;-60
2021/09/17 09:05:30;;;;;;;3.03;2.77;;;18.50;1.00;;;;;;5105109;28;20475;-59
2021/09/17 09:07:56;;;;;;;3.73;3.43;;;18.20;1.00;;;;;;5108487;28;20468;-58
2021/09/17 09:10:22;;;;;;;3.83;3.53;;;17.90;1.00;;;;;;5111401;28;20460;-62
2021/09/17 09:13:01;;;;;;;4.70;4.40;;;17.80;1.00;;;;;;5111429;28;20418;-61
2021/09/17 09:15:29;;;;;;;5.00;4.67;;;17.50;1.00;;;;;;5111510;28;20206;-59
2021/09/17 09:18:12;;;;;;;5.30;4.90;;;17.50;1.00;;;;;;5111292;28;20549;-59
2021/09/17 09:20:43;;;;;;;4.80;4.50;;;17.50;1.00;;;;;;5110970;28;20437;-59
2021/09/17 09:23:13;;;;;;;5.10;4.80;;;19.20;1.00;;;;;;5110800;28;20901;-58
2021/09/17 09:25:59;;;;;;;4.13;3.83;;;17.10;1.00;;;;;;5111393;28;20445;-59
2021/09/17 09:28:27;;;;;;;3.87;3.57;;;17.10;1.00;;;;;;5110298;28;20474;-59
2021/09/17 09:30:54;;;;;;;5.40;4.33;;;17.20;1.00;;;;;;5111171;28;20483;-61
2021/09/17 09:33:28;;;;;;;4.13;3.83;;;17.40;1.00;;;;;;5111159;28;21020;-60
2021/09/17 09:36:10;;;;;;;3.83;3.53;;;17.60;1.00;;;;;;5110922;28;20429;-59
2021/09/17 09:38:48;;;;;;;4.63;4.33;;;17.90;1.00;;;;;;5115162;28;20403;-60
2021/09/17 09:41:17;;;;;;;4.27;3.97;;;18.40;1.00;;;;;;5115114;28;20405;-58
2021/09/17 09:43:52;;;;;;;4.77;4.07;;;18.50;1.00;;;;;;5114974;28;20866;-60
2021/09/17 09:46:26;;;;;;;4.93;3.90;;;18.70;1.00;;;;;;5114654;28;20480;-59
2021/09/17 09:49:14;;;;;;;4.30;3.90;;;19.80;1.00;;;;;;5114960;28;20474;-60
2021/09/17 09:51:52;;;;;;;3.50;3.20;;;19.00;1.00;;;;;;5094645;28;20513;-60
2021/09/17 09:54:18;;;;;;;2.93;2.60;;;19.30;1.00;;;;;;5114529;28;20812;-60
2021/09/17 09:56:43;;;;;;;2.13;1.97;;;19.50;1.00;;;;;;5115014;28;20455;-60
2021/09/17 09:59:09;;;;;;;2.13;1.93;;;19.50;1.00;;;;;;5114596;28;20928;-61
2021/09/17 10:01:37;;;;;;;2.30;1.43;;;19.60;1.00;;;;;;5115101;28;20186;-60
2021/09/17 10:04:04;;;;;;;1.73;1.50;;;19.50;1.00;;;;;;5114740;27;20547;-61
2021/09/17 10:06:33;;;;;;;1.80;1.43;;;19.50;1.00;;;;;;5114460;27;20439;-60
2021/09/17 10:08:59;;;;;;;2.07;1.37;;;19.60;1.00;;;;;;5114449;28;20857;-60
2021/09/17 10:11:25;;;;;;;1.40;1.20;;;19.70;1.00;;;;;;5114327;28;20443;-61
2021/09/17 10:13:54;;;;;;;1.40;1.30;;;19.40;1.00;;;;;;5114582;28;20550;-61
2021/09/17 10:16:22;;;;;;;2.73;1.20;;;19.50;1.00;;;;;;5114260;28;20816;-60
2021/09/17 10:18:48;;;;;;;1.20;1.10;;;19.70;1.00;;;;;;5114969;28;20436;-60
2021/09/17 10:21:50;;;;;;;1.10;1.00;;;19.90;1.00;;;;;;5113180;27;20463;-60
2021/09/17 10:24:32;;;;;;;1.87;1.50;;;19.90;1.00;;;;;;5111629;28;20417;-58
2021/09/17 10:27:02;;;;;;;1.10;0.97;;;20.10;1.00;;;;;;5114284;27;20410;-61
2021/09/17 10:29:37;;;;;;;1.40;1.20;;;20.10;1.00;;;;;;5113661;28;20432;-59
2021/09/17 10:32:05;;;;;;;1.07;0.97;;;19.80;1.00;;;;;;5111959;28;20491;-60
2021/09/17 10:34:32;;;;;;;2.90;1.23;;;19.60;1.00;;;;;;5114017;28;20410;-60
2021/09/17 10:36:58;;;;;;;2.17;1.50;;;19.50;1.00;;;;;;5113763;28;20983;-62
2021/09/17 10:39:24;;;;;;;1.77;1.20;;;19.30;1.00;;;;;;5113798;28;20993;-60
2021/09/17 10:42:09;;;;;;;1.63;1.53;;;19.30;1.00;;;;;;5113692;28;20517;-60
2021/09/17 10:45:06;;;;;;;1.57;1.47;;;19.40;1.00;;;;;;5113864;28;20925;-61
2021/09/17 10:47:40;;;;;;;3.90;1.83;;;19.50;1.00;;;;;;5111595;28;20519;-61
2021/09/17 10:50:09;;;;;;;1.80;1.70;;;19.10;1.00;;;;;;5113253;28;20460;-60
2021/09/17 10:52:39;;;;;;;2.30;2.10;;;18.90;1.00;;;;;;5110774;28;20475;-59
2021/09/17 10:55:05;;;;;;;2.70;1.93;;;18.90;1.00;;;;;;5113757;28;20435;-61
2021/09/17 10:57:31;;;;;;;2.30;2.10;;;18.90;1.00;;;;;;5113115;28;20975;-60
2021/09/17 10:59:56;;;;;;;2.47;2.27;;;18.80;1.00;;;;;;5110760;28;20460;-59
2021/09/17 11:02:40;;;;;;;2.60;2.40;;;18.80;1.00;;;;;;5113380;28;20182;-60
2021/09/17 11:05:17;;;;;;;2.23;1.73;;;19.20;1.00;;;;;;5112616;28;20181;-59
2021/09/17 11:07:42;;;;;;;2.20;1.77;;;19.50;1.00;;;;;;5113031;28;20489;-61
2021/09/17 11:10:24;;;;;;;2.87;2.23;;;19.50;1.00;;;;;;5113410;28;20430;-61
2021/09/17 11:12:49;;;;;;;1.27;1.17;;;19.60;1.00;;;;;;5112664;28;20721;-58
2021/09/17 11:15:19;;;;;;;1.60;1.50;;;19.60;1.00;;;;;;5112949;28;20407;-61
2021/09/17 11:17:58;;;;;;;3.70;1.20;;;19.50;1.00;;;;;;5112962;28;20198;-60
2021/09/17 11:20:28;;;;;;;1.73;1.37;;;19.40;1.00;;;;;;5107981;28;20563;-59
2021/09/17 11:22:57;;;;;;;1.80;1.10;;;19.20;1.00;;;;;;5104488;28;20412;-59
2021/09/17 11:25:37;;;;;;;1.87;1.30;;;19.00;1.00;;;;;;5113068;28;20407;-59
2021/09/17 11:28:06;;;;;;;2.17;1.27;;;18.80;1.00;;;;;;5112717;28;20406;-60
2021/09/17 11:30:34;;;;;;;1.70;0.90;;;18.90;1.00;;;;;;5112804;28;20413;-61
2021/09/17 11:33:13;;;;;;;2.50;1.20;;;19.00;1.00;;;;;;5112167;28;20446;-59
2021/09/17 11:35:39;;;;;;;1.67;1.40;;;19.00;1.00;;;;;;5112670;28;20463;-60
2021/09/17 11:38:05;;;;;;;1.57;1.40;;;19.10;1.00;;;;;;5112565;28;20550;-60
2021/09/17 11:40:30;;;;;;;1.47;1.37;;;19.50;1.00;;;;;;5112893;27;20268;-60
2021/09/17 11:42:56;;;;;;;1.50;1.40;;;19.50;1.00;;;;;;5112327;28;20178;-60
2021/09/17 11:45:26;;;;;;;5.07;2.17;;;19.60;1.00;;;;;;5112763;28;20567;-60
2021/09/17 11:47:53;;;;;;;2.40;1.70;;;19.80;1.00;;;;;;5111883;28;20447;-60
2021/09/17 11:50:24;;;;;;;2.90;1.60;;;19.90;1.00;;;;;;5071732;28;20444;-61
2021/09/17 11:52:52;;;;;;;1.73;1.63;;;19.80;1.00;;;;;;5071227;28;20439;-60
2021/09/17 11:55:20;;;;;;;3.50;1.70;;;19.80;1.00;;;;;;5071832;28;20446;-60
2021/09/17 11:57:49;;;;;;;1.80;1.70;;;19.80;1.00;;;;;;5071677;28;20472;-61
2021/09/17 12:00:20;;;;;;;2.97;1.90;;;19.60;1.00;;;;;;5071267;28;20526;-58
2021/09/17 12:02:48;;;;;;;2.47;1.60;;;19.60;1.00;;;;;;5071694;28;20920;-58
2021/09/17 12:05:23;;;;;;;1.90;1.63;;;19.40;1.00;;;;;;5071278;28;20981;-61
2021/09/17 12:07:50;;;;;;;4.23;1.80;;;19.20;1.00;;;;;;5071480;28;20415;-59
2021/09/17 12:10:44;;;;;;;2.13;1.93;;;19.10;1.00;;;;;;5071643;28;20532;-60
2021/09/17 12:13:14;;;;;;;2.57;2.07;;;19.10;1.00;;;;;;5071469;28;20960;-59
2021/09/17 12:15:44;;;;;;;1.93;1.83;;;19.30;1.00;;;;;;5071037;28;20523;-61
2021/09/17 12:18:20;;;;;;;1.93;1.77;;;19.40;1.00;;;;;;5071125;28;20463;-59
2021/09/17 12:20:56;;;;;;;6.07;2.07;;;19.50;1.00;;;;;;5071156;28;20437;-58
2021/09/17 12:23:31;;;;;;;3.13;2.10;;;19.40;1.00;;;;;;5072917;28;20518;-60
2021/09/17 12:26:09;;;;;;;3.53;2.20;;;19.20;1.00;;;;;;5071224;28;20503;-60
2021/09/17 12:28:35;;;;;;;5.10;2.17;;;19.20;1.00;;;;;;5071385;28;20430;-61
2021/09/17 12:31:01;;;;;;;2.80;2.30;;;19.10;1.00;;;;;;5071013;28;20432;-60
2021/09/17 12:33:32;;;;;;;3.73;2.33;;;18.80;1.00;;;;;;5070885;28;20441;-59
2021/09/17 12:36:11;;;;;;;2.10;2.00;;;18.60;1.00;;;;;;5071041;28;20522;-59
2021/09/17 12:38:37;;;;;;;3.27;2.30;;;18.80;1.00;;;;;;5070209;28;20525;-59
2021/09/17 12:41:12;;;;;;;2.77;2.17;;;19.00;1.00;;;;;;5071090;28;20439;-59
2021/09/17 12:43:39;;;;;;;5.03;2.07;;;19.50;1.00;;;;;;5071149;28;20479;-60
2021/09/17 12:46:12;;;;;;;2.30;2.00;;;19.80;1.00;;;;;;5071047;28;20448;-59
2021/09/17 12:48:44;;;;;;;2.43;2.10;;;19.70;1.00;;;;;;5083020;28;20942;-60
2021/09/17 12:51:39;;;;;;;2.70;2.10;;;19.70;1.00;;;;;;5111109;28;20884;-60
2021/09/17 12:54:12;;;;;;;2.00;1.90;;;19.90;1.00;;;;;;5076710;28;20553;-60
2021/09/17 12:56:38;;;;;;;2.00;1.80;;;19.80;1.00;;;;;;5111018;28;20441;-60
2021/09/17 12:59:13;;;;;;;2.43;2.10;;;19.60;1.00;;;;;;5111063;28;20442;-59